Time;durP1;ratioP1;P1;durP2;ratioP2;P2;SDS_P1;SDS_P2;PMS_P1;PMS_P2;Temp;Humidity;BMP_temperature;BMP_pressure;BME280_temperature;BME280_humidity;BME280_pressure;Samples;Min_cycle;Max_cycle;Signal;HPM_P1;HPM_P2
2023/09/24 00:00:55;;;;;;;3.10;1.90;;;10.50;45.30;;;;;;5071853;28;20403;-70
2023/09/24 00:03:21;;;;;;;2.27;1.30;;;10.40;46.00;;;;;;5070638;28;20184;-70
2023/09/24 00:05:46;;;;;;;5.47;1.70;;;10.30;47.60;;;;;;5073145;28;20491;-69
2023/09/24 00:08:12;;;;;;;2.50;1.50;;;10.20;47.50;;;;;;5075618;28;20209;-69
2023/09/24 00:10:38;;;;;;;3.93;1.70;;;10.10;47.80;;;;;;5074591;28;20178;-69
2023/09/24 00:13:03;;;;;;;3.30;1.80;;;10.10;47.90;;;;;;5075829;28;20718;-70
2023/09/24 00:15:30;;;;;;;3.80;1.20;;;10.00;47.50;;;;;;5074583;28;20193;-69
2023/09/24 00:17:56;;;;;;;2.53;1.53;;;10.00;47.60;;;;;;5075671;28;20194;-71
2023/09/24 00:20:21;;;;;;;3.80;1.63;;;9.90;49.70;;;;;;5075529;28;20427;-69
2023/09/24 00:22:47;;;;;;;2.30;1.23;;;9.80;50.50;;;;;;5073774;28;20216;-70
2023/09/24 00:25:14;;;;;;;5.30;1.63;;;9.80;50.80;;;;;;5074289;28;20187;-69
2023/09/24 00:27:40;;;;;;;2.83;1.90;;;9.70;50.80;;;;;;5075237;28;20182;-69
2023/09/24 00:30:06;;;;;;;2.33;1.70;;;9.70;47.60;;;;;;5075467;28;20422;-69
2023/09/24 00:32:32;;;;;;;5.17;1.37;;;9.70;43.70;;;;;;5075054;28;20511;-69
2023/09/24 00:34:58;;;;;;;2.23;1.63;;;9.60;45.40;;;;;;5075212;28;20494;-69
2023/09/24 00:37:24;;;;;;;4.23;1.80;;;9.60;46.00;;;;;;5073750;28;20205;-70
2023/09/24 00:39:50;;;;;;;4.13;2.47;;;9.50;46.10;;;;;;5075190;28;20412;-69
2023/09/24 00:42:15;;;;;;;2.63;1.97;;;9.50;46.20;;;;;;5074984;28;20544;-70
2023/09/24 00:44:41;;;;;;;3.40;2.40;;;9.50;46.80;;;;;;5074916;28;20262;-70
2023/09/24 00:47:08;;;;;;;3.67;1.57;;;9.50;55.20;;;;;;5073750;28;20322;-70
2023/09/24 00:49:34;;;;;;;2.70;2.20;;;9.50;53.40;;;;;;5073494;28;20178;-70
2023/09/24 00:52:00;;;;;;;2.60;1.50;;;9.40;53.40;;;;;;5075030;28;20426;-69
2023/09/24 00:54:26;;;;;;;3.67;2.03;;;9.40;53.40;;;;;;5073851;28;20427;-70
2023/09/24 00:56:52;;;;;;;3.97;1.83;;;9.30;54.50;;;;;;5074964;28;20913;-69
2023/09/24 00:59:18;;;;;;;2.60;1.60;;;9.30;56.30;;;;;;5074952;28;20227;-69
2023/09/24 01:01:44;;;;;;;3.17;1.80;;;9.30;57.60;;;;;;5075013;28;20462;-69
2023/09/24 01:04:11;;;;;;;3.83;1.73;;;;;;;;;;5076049;28;20411;-69
2023/09/24 01:06:38;;;;;;;3.13;1.60;;;;;;;;;;5074549;28;20492;-69
2023/09/24 01:09:05;;;;;;;2.73;1.63;;;;;;;;;;5075673;28;20430;-68
2023/09/24 01:11:33;;;;;;;2.30;1.63;;;;;;;;;;5077194;28;20816;-69
2023/09/24 01:13:59;;;;;;;3.10;1.90;;;;;;;;;;5076548;28;20435;-68
2023/09/24 01:16:25;;;;;;;2.43;1.63;;;;;;;;;;5075846;28;20516;-69
2023/09/24 01:18:53;;;;;;;3.60;1.70;;;;;;;;;;5077747;28;20434;-68
2023/09/24 01:21:19;;;;;;;2.67;1.60;;;;;;;;;;5078678;28;20465;-68
2023/09/24 01:23:47;;;;;;;2.47;1.90;;;;;;;;;;5077895;28;20771;-69
2023/09/24 01:26:13;;;;;;;3.83;1.87;;;;;;;;;;5078180;28;20411;-69
2023/09/24 01:28:40;;;;;;;2.73;1.93;;;;;;;;;;5076458;28;20441;-68
2023/09/24 01:31:06;;;;;;;2.17;1.37;;;;;;;;;;5077457;28;20414;-69
2023/09/24 01:33:32;;;;;;;4.30;1.70;;;;;;;;;;5075836;28;20470;-68
2023/09/24 01:35:59;;;;;;;2.70;1.33;;;;;;;;;;5075777;28;20415;-68
2023/09/24 01:38:25;;;;;;;2.93;2.03;;;;;;;;;;5075657;28;20410;-68
2023/09/24 01:40:53;;;;;;;4.13;1.83;;;;;;;;;;5075603;28;20414;-68
2023/09/24 01:43:19;;;;;;;2.73;1.87;;;;;;;;;;5073827;28;20422;-68
2023/09/24 01:45:47;;;;;;;2.33;1.47;;;;;;;;;;5076495;28;20778;-69
2023/09/24 01:48:13;;;;;;;3.00;2.10;;;;;;;;;;5075799;28;20427;-68
2023/09/24 01:50:41;;;;;;;2.90;2.00;;;;;;;;;;5075943;28;20413;-69
2023/09/24 01:53:08;;;;;;;4.57;1.87;;;;;;;;;;5076542;28;20474;-68
2023/09/24 01:55:38;;;;;;;2.97;2.03;;;;;;;;;;5077166;28;20419;-68
2023/09/24 01:58:04;;;;;;;4.43;1.67;;;;;;;;;;5076658;28;20517;-68
2023/09/24 02:00:30;;;;;;;2.67;2.17;;;;;;;;;;5077080;28;20468;-69
2023/09/24 02:02:59;;;;;;;2.90;1.93;;;8.30;74.60;;;;;;5076217;28;20525;-69
2023/09/24 02:05:30;;;;;;;2.47;1.70;;;8.40;70.80;;;;;;5076463;28;20409;-68
2023/09/24 02:07:56;;;;;;;3.00;1.67;;;8.40;69.80;;;;;;5075678;28;20466;-69
2023/09/24 02:10:22;;;;;;;11.20;2.83;;;8.40;69.20;;;;;;5075307;28;20421;-69
2023/09/24 02:12:47;;;;;;;2.90;1.60;;;8.40;67.90;;;;;;5076942;28;20413;-69
2023/09/24 02:15:20;;;;;;;3.80;1.90;;;8.40;68.40;;;;;;5076948;28;20419;-69
2023/09/24 02:17:48;;;;;;;4.53;2.10;;;8.40;68.30;;;;;;5077290;28;20197;-69
2023/09/24 02:22:59;;;;;;;2.53;1.73;;;8.40;68.10;;;;;;5078481;28;20485;-69
2023/09/24 02:25:26;;;;;;;3.53;1.47;;;8.30;67.20;;;;;;5082546;28;20410;-69
2023/09/24 02:27:52;;;;;;;2.47;1.63;;;8.30;67.70;;;;;;5080352;28;20425;-69
2023/09/24 02:30:19;;;;;;;3.27;2.00;;;8.30;67.20;;;;;;5078653;28;20404;-69
2023/09/24 02:32:46;;;;;;;6.73;2.37;;;8.20;65.60;;;;;;5078824;28;20490;-70
2023/09/24 02:35:13;;;;;;;5.87;2.17;;;8.20;65.90;;;;;;5075281;28;20420;-69
2023/09/24 02:37:45;;;;;;;3.93;1.63;;;8.20;65.90;;;;;;5072482;28;20465;-69
2023/09/24 02:40:18;;;;;;;3.07;1.80;;;8.10;66.60;;;;;;5073348;28;20429;-68
2023/09/24 02:42:46;;;;;;;3.30;2.13;;;8.10;66.90;;;;;;5073116;28;20511;-68
2023/09/24 02:45:12;;;;;;;5.13;1.60;;;8.10;65.80;;;;;;5071593;28;20414;-68
2023/09/24 02:47:38;;;;;;;3.30;1.87;;;8.00;66.30;;;;;;5071651;28;20970;-68
2023/09/24 02:50:08;;;;;;;2.40;1.43;;;8.00;67.10;;;;;;5072998;28;20404;-68
2023/09/24 02:52:35;;;;;;;2.47;1.43;;;7.90;67.70;;;;;;5072678;28;20194;-68
2023/09/24 02:55:01;;;;;;;2.80;1.83;;;7.90;68.40;;;;;;5072785;28;20420;-68
2023/09/24 02:57:27;;;;;;;3.20;1.63;;;7.90;67.70;;;;;;5072688;28;20438;-68
2023/09/24 02:59:53;;;;;;;3.30;1.80;;;7.90;67.80;;;;;;5071229;28;20462;-68
2023/09/24 03:02:18;;;;;;;4.60;1.70;;;7.80;67.70;;;;;;5071220;28;20468;-68
2023/09/24 03:04:44;;;;;;;3.00;2.00;;;7.80;68.80;;;;;;5070972;28;20174;-69
2023/09/24 03:07:10;;;;;;;3.97;2.37;;;7.80;69.60;;;;;;5072073;28;20210;-68
2023/09/24 03:09:36;;;;;;;3.57;1.70;;;7.80;70.10;;;;;;5072396;28;20476;-68
2023/09/24 03:12:01;;;;;;;2.17;1.53;;;7.80;67.70;;;;;;5072240;28;20178;-68
2023/09/24 03:14:27;;;;;;;2.57;1.50;;;7.80;67.80;;;;;;5072068;28;20254;-68
2023/09/24 03:16:53;;;;;;;3.00;1.60;;;7.80;68.50;;;;;;5072944;28;20204;-68
2023/09/24 03:19:19;;;;;;;2.43;1.37;;;7.70;68.20;;;;;;5072179;28;20182;-68
2023/09/24 03:21:44;;;;;;;3.60;1.70;;;7.80;68.30;;;;;;5071624;28;20979;-68
2023/09/24 03:24:11;;;;;;;2.73;1.37;;;7.80;68.00;;;;;;5072978;28;20173;-69
2023/09/24 03:26:37;;;;;;;2.30;1.30;;;7.70;68.10;;;;;;5071844;28;20195;-68
2023/09/24 03:29:03;;;;;;;3.03;1.87;;;7.70;68.60;;;;;;5073175;28;20439;-68
2023/09/24 03:31:29;;;;;;;2.00;1.40;;;7.70;69.10;;;;;;5072856;28;20172;-69
2023/09/24 03:33:55;;;;;;;2.30;1.30;;;7.60;68.80;;;;;;5073231;28;20408;-69
2023/09/24 03:36:20;;;;;;;3.20;1.57;;;7.60;68.70;;;;;;5072963;28;20437;-68
2023/09/24 03:38:46;;;;;;;3.87;1.47;;;7.60;69.20;;;;;;5071711;28;20184;-68
2023/09/24 03:41:12;;;;;;;2.83;1.80;;;7.60;68.60;;;;;;5072822;28;20557;-68
2023/09/24 03:43:37;;;;;;;2.73;1.93;;;7.70;68.80;;;;;;5072817;28;20437;-67
2023/09/24 03:46:03;;;;;;;3.43;2.17;;;7.60;69.00;;;;;;5073064;28;20174;-68
2023/09/24 03:48:28;;;;;;;2.73;1.53;;;7.60;68.50;;;;;;5072991;28;20177;-68
2023/09/24 03:50:54;;;;;;;2.90;1.60;;;7.50;67.50;;;;;;5088035;28;20550;-67
2023/09/24 03:53:19;;;;;;;3.20;1.70;;;7.50;67.40;;;;;;5074186;28;20202;-68
2023/09/24 03:55:45;;;;;;;2.73;1.50;;;7.50;68.40;;;;;;5073883;28;20177;-68
2023/09/24 03:58:12;;;;;;;2.77;1.60;;;7.40;68.30;;;;;;5075470;28;20206;-68
2023/09/24 04:00:37;;;;;;;3.00;1.73;;;7.40;69.00;;;;;;5075959;28;20179;-69
2023/09/24 04:03:03;;;;;;;2.60;1.50;;;7.40;70.00;;;;;;5075237;28;20529;-68
2023/09/24 04:05:30;;;;;;;2.10;1.47;;;7.50;70.10;;;;;;5076392;28;20181;-69
2023/09/24 04:07:56;;;;;;;3.20;2.20;;;7.50;70.10;;;;;;5076355;28;20458;-69
2023/09/24 04:10:23;;;;;;;4.13;1.87;;;7.50;69.60;;;;;;5075339;28;20413;-69
2023/09/24 04:12:52;;;;;;;2.80;1.80;;;7.50;69.90;;;;;;5075394;28;20416;-69
2023/09/24 04:15:27;;;;;;;2.47;1.70;;;7.50;70.00;;;;;;5074654;28;20473;-69
2023/09/24 04:17:57;;;;;;;8.10;2.20;;;7.50;70.00;;;;;;5075837;28;20472;-68
2023/09/24 04:20:25;;;;;;;3.30;2.23;;;7.50;70.00;;;;;;5076340;28;20919;-69
2023/09/24 04:22:51;;;;;;;3.37;1.70;;;7.40;69.40;;;;;;5076563;28;20459;-69
2023/09/24 04:25:20;;;;;;;2.43;1.67;;;7.50;70.00;;;;;;5076474;28;20420;-68
2023/09/24 04:27:46;;;;;;;2.63;1.70;;;7.40;69.90;;;;;;5074981;28;20193;-68
2023/09/24 04:30:19;;;;;;;2.70;1.70;;;7.40;69.40;;;;;;5072323;28;20408;-68
2023/09/24 04:32:48;;;;;;;3.50;2.00;;;7.40;70.00;;;;;;5070379;28;20268;-68
2023/09/24 04:35:14;;;;;;;11.37;2.03;;;7.40;69.90;;;;;;5070351;28;20428;-69
2023/09/24 04:37:39;;;;;;;2.30;1.47;;;7.40;70.90;;;;;;5071030;28;20438;-69
2023/09/24 04:40:08;;;;;;;9.10;2.50;;;7.50;71.00;;;;;;5070332;28;20835;-70
2023/09/24 04:42:34;;;;;;;2.20;1.30;;;7.50;70.20;;;;;;5069993;28;20643;-68
2023/09/24 04:45:00;;;;;;;2.77;2.00;;;7.40;69.90;;;;;;5073309;28;20413;-70
2023/09/24 04:47:25;;;;;;;2.43;1.83;;;7.40;64.60;;;;;;5074383;28;20780;-69
2023/09/24 04:49:51;;;;;;;4.77;2.03;;;7.40;65.60;;;;;;5071034;28;20167;-70
2023/09/24 04:52:16;;;;;;;2.70;1.97;;;7.30;64.80;;;;;;5072972;28;20800;-68
2023/09/24 04:54:42;;;;;;;2.10;1.60;;;7.30;65.60;;;;;;5074100;28;20178;-68
2023/09/24 04:57:09;;;;;;;3.20;2.07;;;7.30;65.30;;;;;;5075371;28;20191;-68
2023/09/24 04:59:35;;;;;;;2.40;1.30;;;7.20;64.10;;;;;;5075315;28;20201;-68
2023/09/24 05:02:00;;;;;;;2.93;2.00;;;7.20;63.90;;;;;;5075023;28;20499;-68
2023/09/24 05:04:26;;;;;;;2.70;1.90;;;7.20;64.50;;;;;;5075391;28;20680;-68
2023/09/24 05:06:51;;;;;;;2.90;2.17;;;7.20;64.70;;;;;;5074975;28;20206;-68
2023/09/24 05:09:17;;;;;;;3.37;1.73;;;7.10;65.70;;;;;;5075200;28;20317;-68
2023/09/24 05:11:42;;;;;;;3.20;2.17;;;7.20;65.80;;;;;;5075143;28;20554;-67
2023/09/24 05:14:08;;;;;;;3.40;2.03;;;7.30;67.30;;;;;;5073548;28;20653;-67
2023/09/24 05:16:33;;;;;;;2.27;1.47;;;7.30;66.70;;;;;;5074914;28;20189;-69
2023/09/24 05:19:02;;;;;;;1.80;1.10;;;7.20;65.40;;;;;;5075019;28;20270;-67
2023/09/24 05:21:28;;;;;;;3.60;2.00;;;7.20;66.10;;;;;;5073602;28;20255;-66
2023/09/24 05:23:54;;;;;;;2.43;1.30;;;7.20;65.70;;;;;;5074763;28;20408;-67
2023/09/24 05:26:20;;;;;;;2.30;1.87;;;7.20;66.10;;;;;;5074799;28;20436;-68
2023/09/24 05:28:45;;;;;;;5.70;1.83;;;7.20;65.60;;;;;;5074859;28;20412;-67
2023/09/24 05:31:11;;;;;;;2.30;1.53;;;7.20;66.50;;;;;;5074641;28;20235;-68
2023/09/24 05:33:38;;;;;;;2.90;2.10;;;7.20;66.50;;;;;;5074424;28;20170;-67
2023/09/24 05:36:03;;;;;;;2.07;1.57;;;7.20;66.50;;;;;;5074594;28;20174;-67
2023/09/24 05:38:29;;;;;;;4.67;2.30;;;7.30;66.70;;;;;;5074948;28;20408;-68
2023/09/24 05:40:55;;;;;;;3.20;2.03;;;7.30;67.50;;;;;;5074510;28;20202;-67
2023/09/24 05:43:21;;;;;;;2.63;2.00;;;7.40;68.20;;;;;;5074237;28;20281;-67
2023/09/24 05:45:48;;;;;;;2.13;1.60;;;7.40;68.20;;;;;;5073112;28;20420;-67
2023/09/24 05:48:15;;;;;;;3.10;2.13;;;7.50;68.10;;;;;;5074533;28;20435;-67
2023/09/24 05:50:42;;;;;;;3.00;2.07;;;7.60;67.90;;;;;;5074726;28;20754;-66
2023/09/24 05:53:09;;;;;;;3.33;1.70;;;7.60;68.10;;;;;;5074340;28;20408;-67
2023/09/24 05:55:35;;;;;;;3.43;2.07;;;7.70;70.20;;;;;;5075194;28;20454;-68
2023/09/24 05:58:00;;;;;;;3.10;2.23;;;8.10;71.60;;;;;;5075028;28;20437;-68
2023/09/24 06:00:28;;;;;;;3.00;2.00;;;8.10;71.20;;;;;;5075478;28;20486;-68
2023/09/24 06:02:54;;;;;;;7.37;3.47;;;8.20;69.00;;;;;;5074558;28;20203;-68
2023/09/24 06:05:19;;;;;;;2.67;2.13;;;8.30;66.80;;;;;;5074208;28;20771;-68
2023/09/24 06:07:45;;;;;;;2.50;1.70;;;8.40;66.70;;;;;;5074962;28;20456;-71
2023/09/24 06:10:11;;;;;;;2.80;1.50;;;8.40;64.80;;;;;;5075297;28;20171;-70
2023/09/24 06:12:36;;;;;;;4.17;1.77;;;8.50;64.10;;;;;;5075402;28;20179;-72
2023/09/24 06:15:03;;;;;;;7.93;2.07;;;8.50;63.20;;;;;;5092142;28;20269;-71
2023/09/24 06:17:29;;;;;;;5.43;2.20;;;8.60;63.70;;;;;;5072334;28;20576;-71
2023/09/24 06:19:58;;;;;;;3.73;1.80;;;9.20;69.40;;;;;;5075007;28;20411;-71
2023/09/24 06:22:23;;;;;;;3.10;2.07;;;9.80;69.30;;;;;;5074389;28;20467;-71
2023/09/24 06:24:52;;;;;;;2.83;1.90;;;10.00;55.00;;;;;;5074689;28;20419;-71
2023/09/24 06:27:19;;;;;;;4.47;1.87;;;9.90;48.70;;;;;;5074124;28;20213;-71
2023/09/24 06:29:44;;;;;;;3.77;1.60;;;10.00;44.90;;;;;;5074013;28;20420;-71
2023/09/24 06:32:10;;;;;;;3.10;1.63;;;10.10;41.40;;;;;;5073879;28;20420;-71
2023/09/24 06:34:37;;;;;;;3.57;2.00;;;10.30;38.80;;;;;;5074056;28;20230;-71
2023/09/24 06:37:03;;;;;;;2.70;1.83;;;10.60;34.80;;;;;;5073518;28;20424;-71
2023/09/24 06:39:29;;;;;;;3.00;1.40;;;11.10;31.90;;;;;;5073602;28;20786;-71
2023/09/24 06:41:55;;;;;;;2.87;1.93;;;11.90;34.20;;;;;;5073494;28;20198;-71
2023/09/24 06:44:22;;;;;;;3.07;1.93;;;13.00;39.70;;;;;;5073612;28;20491;-71
2023/09/24 06:46:54;;;;;;;3.03;1.80;;;14.60;23.90;;;;;;5073782;28;20437;-69
2023/09/24 06:49:20;;;;;;;5.70;2.03;;;16.20;9.30;;;;;;5073773;28;20426;-69
2023/09/24 06:51:45;;;;;;;4.40;1.50;;;17.00;3.70;;;;;;5072173;28;20488;-69
2023/09/24 06:54:11;;;;;;;2.37;1.50;;;16.30;4.00;;;;;;5073955;28;20180;-69
2023/09/24 06:56:37;;;;;;;3.70;2.10;;;15.10;5.50;;;;;;5074122;28;20209;-69
2023/09/24 06:59:09;;;;;;;2.53;1.73;;;14.20;8.10;;;;;;5073725;28;20237;-70
2023/09/24 07:01:35;;;;;;;8.47;2.10;;;13.50;11.50;;;;;;5073694;28;20315;-69
2023/09/24 07:04:01;;;;;;;2.87;1.63;;;12.90;14.80;;;;;;5074237;28;20441;-69
2023/09/24 07:06:26;;;;;;;3.77;1.60;;;12.50;15.80;;;;;;5073003;28;20463;-69
2023/09/24 07:08:53;;;;;;;2.37;1.50;;;12.10;18.70;;;;;;5072950;28;20741;-69
2023/09/24 07:11:24;;;;;;;3.33;2.20;;;11.80;21.00;;;;;;5073035;28;20515;-69
2023/09/24 07:13:50;;;;;;;2.57;1.80;;;11.70;21.90;;;;;;5072766;28;20193;-70
2023/09/24 07:16:18;;;;;;;4.27;2.23;;;11.50;23.50;;;;;;5069699;28;20876;-69
2023/09/24 07:18:44;;;;;;;3.27;2.40;;;11.40;23.90;;;;;;5055479;28;20428;-70
2023/09/24 07:21:09;;;;;;;3.93;2.47;;;11.30;25.10;;;;;;5053389;28;20416;-69
2023/09/24 07:23:35;;;;;;;4.87;2.37;;;11.30;27.10;;;;;;5063533;28;20207;-69
2023/09/24 07:26:00;;;;;;;4.27;2.43;;;11.30;27.30;;;;;;5068955;28;20190;-68
2023/09/24 07:28:26;;;;;;;4.20;2.67;;;11.30;27.90;;;;;;5067209;28;20183;-68
2023/09/24 07:30:55;;;;;;;5.50;2.40;;;11.40;27.70;;;;;;5064885;28;20568;-68
2023/09/24 07:33:21;;;;;;;3.60;3.10;;;11.40;26.50;;;;;;5053958;28;20564;-68
2023/09/24 07:35:46;;;;;;;3.37;2.10;;;11.40;27.10;;;;;;5050974;28;20512;-68
2023/09/24 07:38:12;;;;;;;4.43;2.93;;;11.50;26.30;;;;;;5063131;28;20832;-71
2023/09/24 07:40:39;;;;;;;4.00;2.77;;;11.70;25.60;;;;;;5068404;28;20228;-68
2023/09/24 07:43:07;;;;;;;5.03;2.67;;;11.80;24.40;;;;;;5069618;28;20285;-69
2023/09/24 07:45:33;;;;;;;6.40;2.03;;;11.90;26.30;;;;;;5069179;28;20507;-69
2023/09/24 07:47:58;;;;;;;3.40;2.10;;;12.30;26.00;;;;;;5062100;28;20918;-69
2023/09/24 07:50:24;;;;;;;3.70;1.83;;;12.80;21.10;;;;;;5066323;28;20185;-69
2023/09/24 07:52:49;;;;;;;4.87;1.90;;;12.80;19.90;;;;;;5069262;28;20194;-69
2023/09/24 07:55:15;;;;;;;3.40;1.70;;;12.70;21.00;;;;;;5069035;28;20181;-67
2023/09/24 07:57:41;;;;;;;4.33;2.50;;;12.70;19.60;;;;;;5072217;28;20284;-67
2023/09/24 08:00:07;;;;;;;4.30;2.80;;;12.80;20.60;;;;;;5067484;28;20894;-67
2023/09/24 08:02:33;;;;;;;4.93;2.00;;;12.70;20.60;;;;;;5071849;28;20209;-67
2023/09/24 08:04:58;;;;;;;3.30;2.17;;;12.80;20.90;;;;;;5072014;28;20532;-68
2023/09/24 08:07:26;;;;;;;3.57;2.47;;;13.20;19.90;;;;;;5072074;28;20387;-67
2023/09/24 08:09:51;;;;;;;3.50;2.53;;;13.40;17.30;;;;;;5073075;28;20185;-68
2023/09/24 08:12:18;;;;;;;2.90;1.77;;;13.30;17.40;;;;;;5072646;28;20472;-68
2023/09/24 08:14:43;;;;;;;6.70;3.10;;;13.50;17.80;;;;;;5072338;28;20662;-67
2023/09/24 08:17:10;;;;;;;4.20;2.83;;;13.80;16.40;;;;;;5072778;28;20447;-68
2023/09/24 08:19:36;;;;;;;4.00;2.20;;;13.70;15.90;;;;;;5072288;28;20177;-68
2023/09/24 08:22:01;;;;;;;3.43;2.10;;;13.80;16.70;;;;;;5072685;28;20494;-68
2023/09/24 08:24:27;;;;;;;3.73;2.40;;;14.30;15.30;;;;;;5072692;28;20181;-68
2023/09/24 08:26:52;;;;;;;3.90;2.57;;;14.10;14.40;;;;;;5073839;28;20199;-68
2023/09/24 08:29:18;;;;;;;3.90;3.27;;;13.70;17.40;;;;;;5079809;28;20182;-68
2023/09/24 08:31:43;;;;;;;2.93;2.00;;;13.60;16.40;;;;;;5080170;28;20215;-67
2023/09/24 08:34:09;;;;;;;4.07;2.47;;;13.40;19.00;;;;;;5080665;28;20192;-68
2023/09/24 08:36:35;;;;;;;5.37;2.43;;;13.30;19.10;;;;;;5080243;28;20216;-68
2023/09/24 08:39:03;;;;;;;5.07;2.10;;;13.40;19.90;;;;;;5080577;28;20427;-68
2023/09/24 08:41:28;;;;;;;3.53;2.80;;;13.30;19.40;;;;;;5080513;28;20259;-68
2023/09/24 08:43:56;;;;;;;4.23;2.20;;;13.40;19.90;;;;;;5080780;28;20419;-68
2023/09/24 08:46:22;;;;;;;2.47;1.97;;;13.60;19.80;;;;;;5081427;28;20226;-68
2023/09/24 08:48:49;;;;;;;3.37;2.33;;;13.60;19.40;;;;;;5079640;28;20422;-68
2023/09/24 08:51:15;;;;;;;5.03;2.13;;;13.60;19.00;;;;;;5079579;28;20428;-68
2023/09/24 08:53:41;;;;;;;3.10;1.83;;;13.80;19.10;;;;;;5079373;28;20411;-68
2023/09/24 08:56:07;;;;;;;3.10;1.83;;;14.00;17.20;;;;;;5079415;28;20430;-68
2023/09/24 08:58:33;;;;;;;2.53;1.60;;;14.20;18.80;;;;;;5079347;28;20237;-68
2023/09/24 09:01:00;;;;;;;3.10;2.07;;;14.20;17.10;;;;;;5078649;28;20443;-67
2023/09/24 09:03:31;;;;;;;7.13;2.57;;;14.30;18.10;;;;;;5079139;28;20236;-67
2023/09/24 09:05:57;;;;;;;3.50;1.90;;;14.50;17.20;;;;;;5079105;28;20404;-68
2023/09/24 09:08:22;;;;;;;3.20;2.00;;;14.60;17.00;;;;;;5063667;28;21002;-68
2023/09/24 09:10:49;;;;;;;2.43;1.20;;;14.70;15.80;;;;;;5073503;28;20686;-68
2023/09/24 09:13:18;;;;;;;3.50;2.33;;;14.70;15.50;;;;;;5074524;28;20256;-68
2023/09/24 09:15:44;;;;;;;2.40;1.47;;;14.90;15.30;;;;;;5075323;28;20418;-68
2023/09/24 09:18:26;;;;;;;3.17;1.90;;;14.90;15.10;;;;;;5076220;28;20801;-67
2023/09/24 09:20:59;;;;;;;3.00;1.40;;;15.10;14.70;;;;;;5056736;28;21163;-68
2023/09/24 09:23:43;;;;;;;5.00;1.90;;;15.20;14.70;;;;;;5060457;28;20452;-69
2023/09/24 09:26:09;;;;;;;3.17;1.83;;;15.40;14.10;;;;;;5076531;28;20428;-68
2023/09/24 09:28:34;;;;;;;3.63;1.90;;;15.40;14.10;;;;;;5076717;28;20922;-69
2023/09/24 09:31:05;;;;;;;2.83;1.70;;;15.50;14.40;;;;;;5077805;28;20245;-69
2023/09/24 09:33:35;;;;;;;2.40;1.43;;;15.70;13.80;;;;;;5076550;28;20243;-68
2023/09/24 09:36:02;;;;;;;2.23;1.50;;;15.80;12.50;;;;;;5075995;28;20416;-69
2023/09/24 09:38:28;;;;;;;3.70;1.43;;;15.80;11.50;;;;;;5075552;28;20417;-68
2023/09/24 09:40:57;;;;;;;3.07;1.80;;;15.90;11.90;;;;;;5076053;28;20907;-69
2023/09/24 09:43:25;;;;;;;4.43;1.83;;;15.90;11.40;;;;;;5075683;28;20488;-67
2023/09/24 09:45:55;;;;;;;2.20;1.50;;;16.00;10.20;;;;;;5075816;28;20420;-68
2023/09/24 09:48:28;;;;;;;3.33;2.17;;;16.10;9.50;;;;;;5074877;28;20470;-68
2023/09/24 09:51:02;;;;;;;2.67;1.63;;;16.20;8.20;;;;;;5075017;28;20416;-68
2023/09/24 09:53:34;;;;;;;3.27;1.90;;;16.30;8.70;;;;;;5074987;28;20477;-68
2023/09/24 09:56:05;;;;;;;2.80;1.80;;;16.40;8.60;;;;;;5074930;28;20791;-68
2023/09/24 09:58:36;;;;;;;3.13;2.00;;;16.50;4.40;;;;;;5073662;28;20452;-67
2023/09/24 10:01:03;;;;;;;2.47;1.30;;;16.50;7.90;;;;;;5074980;28;20443;-68
2023/09/24 10:03:31;;;;;;;8.53;2.10;;;16.60;5.50;;;;;;5075023;28;20431;-68
2023/09/24 10:05:57;;;;;;;4.90;1.37;;;16.60;6.10;;;;;;5074779;28;20416;-67
2023/09/24 10:08:48;;;;;;;3.63;1.73;;;16.70;7.10;;;;;;5074346;28;20464;-68
2023/09/24 10:11:32;;;;;;;2.70;1.80;;;16.80;6.50;;;;;;5075010;28;20446;-68
2023/09/24 10:14:05;;;;;;;3.60;2.23;;;17.00;6.70;;;;;;5074456;28;20455;-67
2023/09/24 10:16:32;;;;;;;5.63;2.30;;;17.00;4.90;;;;;;5074931;28;20814;-67
2023/09/24 10:18:59;;;;;;;3.37;1.80;;;17.20;4.20;;;;;;5074720;28;20458;-68
2023/09/24 10:21:31;;;;;;;2.67;2.03;;;17.20;4.40;;;;;;5074847;28;20460;-68
2023/09/24 10:24:03;;;;;;;2.53;1.87;;;17.50;4.00;;;;;;5074114;28;20415;-70
2023/09/24 10:26:48;;;;;;;3.10;1.90;;;17.70;3.10;;;;;;5073470;28;20432;-70
2023/09/24 10:29:37;;;;;;;2.00;1.50;;;17.80;2.60;;;;;;5072857;28;20414;-69
2023/09/24 10:32:06;;;;;;;3.20;1.90;;;17.90;1.00;;;;;;5068555;28;20478;-69
2023/09/24 10:34:59;;;;;;;2.90;1.90;;;18.00;1.00;;;;;;5064668;28;20420;-69
2023/09/24 10:37:37;;;;;;;3.40;1.73;;;18.00;1.00;;;;;;5072836;28;20527;-69
2023/09/24 10:40:09;;;;;;;3.37;1.73;;;18.30;1.00;;;;;;5072845;28;20455;-69
2023/09/24 10:42:39;;;;;;;3.73;2.03;;;18.20;1.00;;;;;;5072582;28;21029;-69
2023/09/24 10:45:07;;;;;;;3.37;1.70;;;18.40;1.00;;;;;;5072618;28;20426;-70
2023/09/24 10:47:36;;;;;;;5.30;2.73;;;18.50;1.00;;;;;;5072772;28;20781;-69
2023/09/24 10:50:04;;;;;;;2.87;2.27;;;18.50;1.00;;;;;;5070656;28;20425;-69
2023/09/24 10:52:45;;;;;;;2.37;2.03;;;18.70;1.00;;;;;;5072673;28;20412;-70
2023/09/24 10:55:11;;;;;;;4.23;2.43;;;18.90;1.00;;;;;;5070976;28;20511;-70
2023/09/24 10:57:37;;;;;;;3.37;2.97;;;19.10;1.00;;;;;;5072521;28;20452;-70
2023/09/24 11:00:04;;;;;;;2.57;2.10;;;19.20;1.00;;;;;;5072493;28;20189;-70
2023/09/24 11:02:30;;;;;;;2.87;2.27;;;19.20;1.00;;;;;;5072157;28;20460;-69
2023/09/24 11:05:01;;;;;;;3.00;2.57;;;19.50;1.00;;;;;;5072830;28;20443;-69
2023/09/24 11:07:26;;;;;;;5.20;2.60;;;19.50;1.00;;;;;;5066795;28;20222;-67
2023/09/24 11:09:52;;;;;;;2.63;2.30;;;19.60;1.00;;;;;;5052907;28;20417;-68
2023/09/24 11:12:17;;;;;;;3.17;2.63;;;19.70;1.00;;;;;;5069934;28;20182;-67
2023/09/24 11:14:53;;;;;;;3.40;2.30;;;19.90;1.00;;;;;;5069344;28;20645;-68
2023/09/24 11:17:19;;;;;;;2.63;2.23;;;19.90;1.00;;;;;;5068701;28;20205;-69
2023/09/24 11:19:46;;;;;;;6.80;3.20;;;19.80;1.00;;;;;;5072613;28;20427;-67
2023/09/24 11:22:29;;;;;;;9.63;3.17;;;19.70;1.00;;;;;;5072043;28;20745;-67
2023/09/24 11:25:14;;;;;;;2.60;2.40;;;19.80;1.00;;;;;;5071796;28;20423;-67
2023/09/24 11:27:51;;;;;;;2.60;2.40;;;19.80;1.00;;;;;;5072673;28;20432;-67
2023/09/24 11:30:18;;;;;;;3.00;2.37;;;19.80;1.00;;;;;;5071993;28;21073;-67
2023/09/24 11:32:49;;;;;;;4.50;2.60;;;20.20;1.00;;;;;;5072606;28;20431;-67
2023/09/24 11:35:16;;;;;;;2.87;2.33;;;20.30;1.00;;;;;;5073701;28;20427;-67
2023/09/24 11:37:54;;;;;;;2.93;2.63;;;20.30;1.00;;;;;;5074941;28;20482;-68
2023/09/24 11:40:24;;;;;;;2.90;2.60;;;20.20;1.00;;;;;;5075394;28;20424;-68
2023/09/24 11:43:24;;;;;;;3.10;2.80;;;20.50;1.00;;;;;;5073799;28;20455;-68
2023/09/24 11:45:53;;;;;;;2.90;2.60;;;20.60;1.00;;;;;;5062673;28;20425;-68
2023/09/24 11:48:25;;;;;;;3.70;2.90;;;20.70;1.00;;;;;;5072234;28;20439;-67
2023/09/24 11:50:56;;;;;;;3.30;2.93;;;20.80;1.00;;;;;;5072149;28;20823;-67
2023/09/24 11:53:24;;;;;;;3.87;2.97;;;20.90;1.00;;;;;;5071900;28;20426;-68
2023/09/24 11:55:51;;;;;;;3.40;3.10;;;21.00;1.00;;;;;;5071879;28;20423;-69
2023/09/24 11:58:17;;;;;;;3.07;2.77;;;21.20;1.00;;;;;;5072176;28;20459;-68
2023/09/24 12:00:44;;;;;;;4.03;2.73;;;21.30;1.00;;;;;;5073082;28;20849;-65
2023/09/24 12:03:10;;;;;;;5.87;2.50;;;21.10;1.00;;;;;;5075959;28;20460;-68
2023/09/24 12:05:36;;;;;;;3.40;2.83;;;21.00;1.00;;;;;;5076179;28;20412;-67
2023/09/24 12:08:06;;;;;;;3.03;2.63;;;20.60;1.00;;;;;;5064588;28;20483;-69
2023/09/24 12:10:38;;;;;;;2.80;2.60;;;20.50;1.00;;;;;;5056223;28;20179;-67
2023/09/24 12:13:04;;;;;;;3.13;2.77;;;20.50;1.00;;;;;;5055784;28;20417;-70
2023/09/24 12:15:31;;;;;;;3.43;2.77;;;20.50;1.00;;;;;;5056166;28;20760;-68
2023/09/24 12:17:58;;;;;;;2.90;2.60;;;20.70;1.00;;;;;;5055840;28;20470;-67
2023/09/24 12:20:25;;;;;;;2.83;2.63;;;20.90;1.00;;;;;;5074965;28;20430;-68
2023/09/24 12:22:50;;;;;;;3.20;2.80;;;20.90;1.00;;;;;;5075801;28;20467;-67
2023/09/24 12:25:16;;;;;;;3.07;2.77;;;21.10;1.00;;;;;;5075636;28;20976;-68
2023/09/24 12:27:42;;;;;;;3.80;3.50;;;20.90;1.00;;;;;;5075490;28;20216;-67
2023/09/24 12:30:11;;;;;;;3.43;3.17;;;21.20;1.00;;;;;;5075394;28;20174;-69
2023/09/24 12:32:37;;;;;;;2.90;2.67;;;21.50;1.00;;;;;;5075634;28;20178;-69
2023/09/24 12:35:03;;;;;;;3.30;3.00;;;21.10;1.00;;;;;;5059467;28;20486;-68
2023/09/24 12:37:29;;;;;;;3.07;2.87;;;21.10;1.00;;;;;;5056133;28;21028;-73
2023/09/24 12:39:58;;;;;;;3.20;3.00;;;21.10;1.00;;;;;;5064008;28;20468;-71
2023/09/24 12:42:25;;;;;;;3.73;3.40;;;21.40;1.00;;;;;;5055959;28;20472;-71
2023/09/24 12:44:51;;;;;;;3.30;3.00;;;21.50;1.00;;;;;;5056966;28;20424;-71
2023/09/24 12:47:16;;;;;;;4.20;3.40;;;22.00;1.00;;;;;;5057317;28;20433;-71
2023/09/24 12:49:42;;;;;;;3.00;2.80;;;21.70;1.00;;;;;;5069785;28;20235;-71
2023/09/24 12:52:09;;;;;;;3.23;3.03;;;21.50;1.00;;;;;;5068950;28;20190;-71
2023/09/24 12:54:34;;;;;;;3.63;3.33;;;21.30;1.00;;;;;;5056759;28;20228;-71
2023/09/24 12:57:00;;;;;;;3.30;3.00;;;20.90;1.00;;;;;;5058912;28;20455;-71
2023/09/24 12:59:26;;;;;;;3.10;2.90;;;20.80;1.00;;;;;;5077246;28;20190;-71
2023/09/24 13:01:51;;;;;;;3.37;3.07;;;20.60;1.00;;;;;;5079239;28;20201;-71
2023/09/24 13:04:17;;;;;;;4.83;3.10;;;20.40;1.00;;;;;;5080328;28;20254;-71